Airfield :
LOGIN :

Register | Disclaimer

   EN    FR    IT 

 










Legend :    VFR   Marginal VFR   IFR   Intensive IFR   Very Intensive IFR
Visi :
Ceiling :
>= 8 km
>= 3000ft
5 to 8 km
1000 to 3000 ft
1500m to 5 km
500 to 1000 ft
800 to 1500m
200 to 500 ft
< 800m
< 200 ft
Symbols :   Thunderstorms  Fog  Heavy snow  Heavy precipitations  Wind > 20 kt
SIGMETs :     Misc.  Thunderstorms  Icing  Turbulence  Mountain Waves  Volcanic Ashes






- Airport Elevation : 13 ft
- IATA code : OST


EBOS - Oostend bruges Int.

CURRENT METAR :
  • 040150Z 18002KT CAVOK 03/M02 Q1021 NOSIG

EXPIRED METARs :
  • 040120Z VRB02KT CAVOK 03/M02 Q1021 NOSIG
  • 040050Z VRB02KT CAVOK 03/M01 Q1021 NOSIG
  • 040020Z 15004KT CAVOK 04/M01 Q1021 NOSIG
  • 032350Z 15005KT CAVOK 04/M00 Q1021 NOSIG
  • 032320Z 15004KT CAVOK 05/M00 Q1021 NOSIG

TAF TAF EBOS
Valid from the 04 at 00:00 until the 05 at 06:00 UTC


032310Z 0400/0506 18004KT CAVOK
PROB40 0403/0407 3000 BR
PROB30
TEMPO 0404/0407 1500 MIFG



MET'MAP, your aeronautical weather chart ! - Copyright ORBIFLY December 2007 - Disclaimer

ORBIFLY MET'MAP TEAM :

Programming & Development : Alexandra Zaïnal
Concept & original design : Baudouin d'Aumeries
Assistance for programming : Marc-Olivier Méhu
Technical & hardware support : Manuel Goepfert

Contact : metmap@orbifly.com




SOURCES & CREDITS :

   NOAA